createdAt,value
2019-02-26T00:01:08.852Z,31.43
2019-02-26T00:03:38.129Z,31.27
2019-02-26T00:06:07.319Z,38.37
2019-02-26T00:08:36.593Z,35.10
2019-02-26T00:11:08.279Z,31.83
2019-02-26T00:13:36.785Z,33.93
2019-02-26T00:16:08.005Z,36.03
2019-02-26T00:18:37.013Z,32.97
2019-02-26T00:21:06.159Z,35.07
2019-02-26T00:23:35.361Z,32.43
2019-02-26T00:26:04.483Z,35.80
2019-02-26T00:28:34.248Z,32.13
2019-02-26T00:31:05.989Z,30.53
2019-02-26T00:33:35.559Z,28.60
2019-02-26T00:36:06.623Z,31.97
2019-02-26T00:38:37.524Z,31.23
2019-02-26T00:41:06.451Z,33.30
2019-02-26T00:43:36.949Z,31.40
2019-02-26T00:46:08.058Z,27.67
2019-02-26T00:48:38.878Z,30.67
2019-02-26T00:51:08.098Z,27.20
2019-02-26T00:53:37.252Z,27.63
2019-02-26T00:56:08.008Z,33.17
2019-02-26T00:58:39.198Z,30.07
2019-02-26T01:01:12.204Z,30.80
2019-02-26T01:03:40.705Z,47.77
2019-02-26T01:06:10.363Z,46.73
2019-02-26T01:08:40.254Z,42.37
2019-02-26T01:11:10.563Z,39.57
2019-02-26T01:13:39.744Z,37.80
2019-02-26T01:16:09.167Z,39.40
2019-02-26T01:18:38.366Z,38.53
2019-02-26T01:21:07.527Z,37.83
2019-02-26T01:23:36.790Z,34.83
2019-02-26T01:26:05.984Z,35.90
2019-02-26T01:28:35.173Z,32.50
2019-02-26T01:31:05.031Z,31.13
2019-02-26T01:33:35.285Z,39.10
2019-02-26T01:36:04.485Z,36.10
2019-02-26T01:38:37.427Z,40.33
2019-02-26T01:41:04.579Z,35.23
2019-02-26T01:43:33.713Z,37.17
2019-02-26T01:46:03.158Z,32.30
2019-02-26T01:48:34.347Z,31.33
2019-02-26T01:51:03.420Z,33.47
2019-02-26T01:53:32.613Z,31.60
2019-02-26T01:56:04.581Z,34.43
2019-02-26T01:58:33.648Z,33.67
2019-02-26T02:01:03.399Z,29.97
2019-02-26T02:03:32.696Z,31.83
2019-02-26T02:06:02.021Z,30.57
2019-02-26T02:08:31.327Z,34.90
2019-02-26T02:11:02.449Z,32.50
2019-02-26T02:13:33.115Z,34.43
2019-02-26T02:16:04.366Z,33.00
2019-02-26T02:18:33.186Z,36.23
2019-02-26T02:21:02.332Z,35.67
2019-02-26T02:23:31.592Z,33.43
2019-02-26T02:26:04.488Z,32.13
2019-02-26T02:28:35.470Z,30.57
2019-02-26T02:31:04.653Z,33.50
2019-02-26T02:33:35.441Z,30.67
2019-02-26T02:36:04.689Z,32.77
2019-02-26T02:38:36.488Z,34.60
2019-02-26T02:41:04.751Z,32.57
2019-02-26T02:43:33.912Z,31.33
2019-02-26T02:46:03.144Z,34.40
2019-02-26T02:48:32.317Z,34.63
2019-02-26T02:51:02.171Z,36.63
2019-02-26T02:53:32.520Z,29.43
2019-02-26T02:56:03.540Z,30.60
2019-02-26T02:58:32.618Z,30.60
2019-02-26T03:01:01.822Z,32.20
2019-02-26T03:03:31.120Z,33.20
2019-02-26T03:06:01.777Z,29.97
2019-02-26T03:08:31.172Z,31.27
2019-02-26T03:11:00.343Z,31.27
2019-02-26T03:13:29.474Z,28.23
2019-02-26T03:16:01.058Z,28.83
2019-02-26T03:18:29.581Z,31.67
2019-02-26T03:20:59.947Z,30.80
2019-02-26T03:23:31.399Z,27.53
2019-02-26T03:26:00.922Z,28.87
2019-02-26T03:28:34.823Z,32.20
2019-02-26T03:31:01.574Z,30.67
2019-02-26T03:33:30.769Z,31.27
2019-02-26T03:35:59.983Z,32.17
2019-02-26T03:38:29.133Z,29.13
2019-02-26T03:41:01.113Z,29.93
2019-02-26T03:43:31.439Z,29.50
2019-02-26T03:46:00.438Z,27.30
2019-02-26T03:48:29.627Z,32.23
2019-02-26T03:51:01.309Z,37.20
2019-02-26T03:53:31.339Z,30.53
2019-02-26T03:56:04.591Z,31.07
2019-02-26T03:58:33.927Z,34.37
2019-02-26T04:01:07.344Z,33.70
2019-02-26T04:03:35.271Z,32.80
2019-02-26T04:06:08.780Z,28.80
2019-02-26T04:08:36.171Z,30.63
2019-02-26T04:11:05.337Z,31.77
2019-02-26T04:13:34.491Z,34.00
2019-02-26T04:16:04.557Z,30.10
2019-02-26T04:18:34.793Z,32.63
2019-02-26T04:21:05.927Z,32.43
2019-02-26T04:23:36.072Z,31.77
2019-02-26T04:26:36.017Z,31.20
2019-02-26T04:29:20.548Z,31.23
2019-02-26T04:32:40.869Z,31.23
2019-02-26T04:35:47.703Z,31.50
2019-02-26T04:38:59.632Z,25.80
2019-02-26T04:41:38.446Z,32.23
2019-02-26T04:44:34.279Z,32.43
2019-02-26T04:47:26.921Z,34.00
2019-02-26T04:49:58.161Z,35.37
2019-02-26T04:52:29.579Z,30.73
2019-02-26T04:54:59.072Z,30.23
2019-02-26T04:57:28.268Z,32.17
2019-02-26T04:59:59.122Z,31.37
2019-02-26T05:02:28.601Z,35.10
2019-02-26T05:04:57.797Z,38.97
2019-02-26T05:07:28.336Z,34.63
2019-02-26T05:09:59.428Z,33.80
2019-02-26T05:12:30.971Z,38.83
2019-02-26T05:14:59.479Z,35.53
2019-02-26T05:17:30.806Z,35.07
2019-02-26T05:19:59.527Z,35.83
2019-02-26T05:22:31.036Z,31.43
2019-02-26T05:24:59.714Z,33.83
2019-02-26T05:27:30.385Z,37.73
2019-02-26T05:29:59.606Z,34.37
2019-02-26T05:32:30.941Z,32.83
2019-02-26T05:34:59.714Z,32.87
2019-02-26T05:37:32.606Z,32.47
2019-02-26T05:40:01.261Z,33.93
2019-02-26T05:42:30.457Z,34.07
2019-02-26T05:45:02.799Z,37.50
2019-02-26T05:47:30.630Z,33.00
2019-02-26T05:50:02.249Z,36.33
2019-02-26T05:52:33.219Z,32.80
2019-02-26T05:55:01.981Z,35.93
2019-02-26T05:57:32.475Z,37.57
2019-02-26T06:00:02.397Z,32.90
2019-02-26T06:02:31.692Z,35.83
2019-02-26T06:05:02.474Z,41.23
2019-02-26T06:07:35.542Z,34.20
2019-02-26T06:10:02.971Z,35.17
2019-02-26T06:12:32.648Z,33.60
2019-02-26T06:15:05.868Z,31.47
2019-02-26T06:17:37.907Z,32.83
2019-02-26T06:20:26.162Z,32.17
2019-02-26T06:22:55.162Z,34.63
2019-02-26T06:25:24.781Z,34.40
2019-02-26T06:27:53.999Z,38.53
2019-02-26T06:30:27.577Z,34.13
2019-02-26T06:32:59.715Z,35.57
2019-02-26T06:35:28.004Z,38.10
2019-02-26T06:37:57.320Z,33.67
2019-02-26T06:40:26.507Z,38.03
2019-02-26T06:42:55.715Z,34.03
2019-02-26T06:45:24.903Z,32.50
2019-02-26T06:47:56.084Z,37.47
2019-02-26T06:50:25.016Z,35.80
2019-02-26T06:52:54.172Z,36.27
2019-02-26T06:55:23.379Z,31.43
2019-02-26T06:57:55.002Z,33.83
2019-02-26T07:00:25.285Z,35.27
2019-02-26T07:02:54.462Z,41.00
2019-02-26T07:05:24.600Z,35.53
2019-02-26T07:07:55.059Z,32.43
2019-02-26T07:10:26.731Z,35.33
2019-02-26T07:12:55.938Z,35.90
2019-02-26T07:15:28.795Z,35.37
2019-02-26T07:18:00.061Z,40.63
2019-02-26T07:20:33.855Z,31.07
2019-02-26T07:22:58.014Z,33.00
2019-02-26T07:25:27.273Z,30.67
2019-02-26T07:27:58.767Z,37.37
2019-02-26T07:30:29.642Z,40.73
2019-02-26T07:32:58.813Z,40.93
2019-02-26T07:35:28.825Z,35.93
2019-02-26T07:37:59.518Z,36.83
2019-02-26T07:40:30.517Z,38.53
2019-02-26T07:43:04.932Z,33.27
2019-02-26T07:45:32.335Z,36.20
2019-02-26T07:48:05.615Z,36.73
2019-02-26T07:50:38.276Z,34.50
2019-02-26T07:53:05.897Z,35.83
2019-02-26T07:55:35.881Z,33.80
2019-02-26T07:58:06.846Z,35.03
2019-02-26T08:00:37.752Z,34.63
2019-02-26T08:03:07.898Z,35.90
2019-02-26T08:05:37.076Z,36.30
2019-02-26T08:08:06.253Z,37.70
2019-02-26T08:10:39.431Z,39.90
2019-02-26T08:13:08.009Z,35.43
2019-02-26T08:15:37.629Z,40.07
2019-02-26T08:18:08.164Z,34.70
2019-02-26T08:20:39.702Z,33.47
2019-02-26T08:23:08.225Z,35.40
2019-02-26T08:25:37.417Z,34.03
2019-02-26T08:28:08.435Z,36.17
2019-02-26T08:30:40.200Z,35.53
2019-02-26T08:33:08.817Z,33.00
2019-02-26T08:35:38.005Z,40.20
2019-02-26T08:38:07.198Z,37.07
2019-02-26T08:40:36.989Z,39.77
2019-02-26T08:43:06.193Z,39.60
2019-02-26T08:45:35.537Z,38.60
2019-02-26T08:48:04.693Z,37.97
2019-02-26T08:50:36.162Z,41.73
2019-02-26T08:53:05.268Z,38.10
2019-02-26T08:55:34.457Z,40.43
2019-02-26T08:58:03.696Z,38.57
2019-02-26T09:00:34.340Z,39.20
2019-02-26T09:03:03.620Z,42.17
2019-02-26T09:05:34.502Z,43.17
2019-02-26T09:08:05.650Z,38.23
2019-02-26T09:10:38.286Z,43.10
2019-02-26T09:13:09.328Z,38.57
2019-02-26T09:15:40.328Z,38.63
2019-02-26T09:18:09.021Z,39.67
2019-02-26T09:20:38.169Z,39.73
2019-02-26T09:23:07.388Z,37.43
2019-02-26T09:25:36.525Z,40.83
2019-02-26T09:28:05.734Z,35.10
2019-02-26T09:30:35.919Z,39.37
2019-02-26T09:33:08.328Z,38.70
2019-02-26T09:35:37.057Z,40.77
2019-02-26T09:38:06.275Z,38.23
2019-02-26T09:40:37.711Z,37.17
2019-02-26T09:43:06.882Z,41.07
2019-02-26T09:45:36.109Z,36.50
2019-02-26T09:48:05.443Z,39.37
2019-02-26T09:50:36.761Z,38.77
2019-02-26T09:53:05.940Z,39.57
2019-02-26T09:55:35.135Z,36.47
2019-02-26T09:58:04.382Z,35.63
2019-02-26T10:00:33.603Z,38.67
2019-02-26T10:03:03.474Z,36.87
2019-02-26T10:05:34.082Z,35.90
2019-02-26T10:08:05.266Z,38.33
2019-02-26T10:10:36.943Z,38.97
2019-02-26T10:13:05.408Z,35.23
2019-02-26T10:15:35.467Z,34.17
2019-02-26T10:18:07.250Z,38.67
2019-02-26T10:20:36.420Z,39.47
2019-02-26T10:23:06.376Z,41.83
2019-02-26T10:25:38.690Z,39.50
2019-02-26T10:28:09.662Z,36.47
2019-02-26T10:30:41.634Z,36.90
2019-02-26T10:33:10.289Z,36.67
2019-02-26T10:35:42.037Z,33.30
2019-02-26T10:38:11.514Z,39.10
2019-02-26T10:40:53.429Z,36.17
2019-02-26T10:43:11.974Z,33.27
2019-02-26T10:45:42.396Z,36.53
2019-02-26T10:48:13.771Z,34.77
2019-02-26T10:50:46.974Z,40.90
2019-02-26T10:53:16.351Z,40.00
2019-02-26T10:55:45.022Z,33.37
2019-02-26T10:59:18.772Z,32.97
2019-02-26T11:01:49.014Z,34.10
2019-02-26T11:05:27.766Z,31.77
2019-02-26T11:07:47.022Z,30.73
2019-02-26T11:10:20.974Z,31.87
2019-02-26T11:12:50.519Z,30.70
2019-02-26T11:15:22.019Z,31.53
2019-02-26T11:17:53.191Z,31.70
2019-02-26T11:20:24.225Z,32.77
2019-02-26T11:22:52.934Z,32.87
2019-02-26T11:25:24.194Z,32.60
2019-02-26T11:27:53.120Z,32.37
2019-02-26T11:30:28.540Z,30.93
2019-02-26T11:32:58.705Z,32.80
2019-02-26T11:35:27.632Z,34.20
2019-02-26T11:37:57.740Z,32.07
2019-02-26T11:40:30.507Z,31.70
2019-02-26T11:43:00.190Z,30.67
2019-02-26T11:45:29.634Z,31.47
2019-02-26T11:48:00.997Z,32.33
2019-02-26T11:50:29.787Z,32.23
2019-02-26T11:52:59.281Z,34.57
2019-02-26T11:55:31.388Z,36.67
2019-02-26T11:57:59.465Z,34.80
2019-02-26T12:00:42.069Z,32.07
2019-02-26T12:03:33.350Z,34.53
2019-02-26T12:05:56.718Z,34.07
2019-02-26T12:08:32.759Z,33.13
2019-02-26T12:11:03.973Z,31.57
2019-02-26T12:13:33.091Z,29.80
2019-02-26T12:16:02.280Z,30.63
2019-02-26T12:18:31.432Z,31.97
2019-02-26T12:21:02.703Z,30.07
2019-02-26T12:23:31.516Z,26.97
2019-02-26T12:26:02.082Z,32.20
2019-02-26T12:28:32.430Z,29.97
2019-02-26T12:31:04.289Z,32.10
2019-02-26T12:33:34.414Z,30.83
2019-02-26T12:36:05.265Z,30.03
2019-02-26T12:38:36.656Z,29.00
2019-02-26T12:41:08.601Z,34.03
2019-02-26T12:43:37.457Z,30.47
2019-02-26T12:46:08.483Z,28.20
2019-02-26T12:48:41.867Z,25.30
2019-02-26T12:51:08.991Z,21.57
2019-02-26T12:53:49.952Z,20.63
2019-02-26T12:56:20.571Z,20.53
2019-02-26T12:58:52.025Z,21.70
2019-02-26T13:01:19.826Z,18.10
2019-02-26T13:03:54.030Z,17.93
2019-02-26T13:06:22.839Z,18.73
2019-02-26T13:08:50.924Z,25.57
2019-02-26T13:11:23.341Z,22.50
2019-02-26T13:13:53.270Z,24.67
2019-02-26T13:16:22.608Z,24.27
2019-02-26T13:18:56.615Z,27.07
2019-02-26T13:21:23.068Z,25.97
2019-02-26T13:23:52.220Z,24.10
2019-02-26T13:26:22.551Z,22.17
2019-02-26T13:28:52.997Z,20.73
2019-02-26T13:31:22.981Z,17.40
2019-02-26T13:33:52.358Z,21.60
2019-02-26T13:36:21.866Z,22.47
2019-02-26T13:38:51.043Z,20.47
2019-02-26T13:41:29.273Z,17.73
2019-02-26T13:43:51.777Z,16.63
2019-02-26T13:46:21.123Z,16.77
2019-02-26T13:48:50.398Z,15.23
2019-02-26T13:51:19.722Z,15.33
2019-02-26T13:53:48.940Z,16.27
2019-02-26T13:56:18.184Z,19.20
2019-02-26T13:58:47.358Z,21.00
2019-02-26T14:01:16.664Z,20.33
2019-02-26T14:03:45.984Z,17.10
2019-02-26T14:06:15.254Z,18.53
2019-02-26T14:08:44.465Z,20.33
2019-02-26T14:11:13.764Z,19.93
2019-02-26T14:13:43.032Z,17.00
2019-02-26T14:16:12.249Z,16.83
2019-02-26T14:18:41.453Z,18.93
2019-02-26T14:21:10.649Z,17.87
2019-02-26T14:23:39.845Z,18.17
2019-02-26T14:26:09.165Z,20.53
2019-02-26T14:28:38.493Z,18.67
2019-02-26T14:31:07.654Z,24.53
2019-02-26T14:33:37.131Z,19.17
2019-02-26T14:36:06.290Z,19.83
2019-02-26T14:38:35.667Z,21.13
2019-02-26T14:41:05.240Z,20.00
2019-02-26T14:43:34.352Z,17.83
2019-02-26T14:46:03.596Z,22.80
2019-02-26T14:48:32.768Z,19.83
2019-02-26T14:51:01.932Z,20.10
2019-02-26T14:53:31.221Z,18.17
2019-02-26T14:56:00.386Z,19.47
2019-02-26T14:58:29.637Z,17.77
2019-02-26T15:01:00.401Z,19.50
2019-02-26T15:03:29.885Z,18.27
2019-02-26T15:05:59.187Z,17.33
2019-02-26T15:08:28.551Z,18.27
2019-02-26T15:10:57.858Z,17.73
2019-02-26T15:13:27.494Z,16.43
2019-02-26T15:15:56.675Z,16.03
2019-02-26T15:18:25.940Z,20.27
2019-02-26T15:20:55.150Z,16.83
2019-02-26T15:23:24.609Z,18.50
2019-02-26T15:25:53.812Z,21.33
2019-02-26T15:28:22.979Z,21.03
2019-02-26T15:30:52.178Z,21.27
2019-02-26T15:33:21.498Z,20.73
2019-02-26T15:35:50.652Z,21.63
2019-02-26T15:38:19.952Z,22.63
2019-02-26T15:40:51.161Z,20.73
2019-02-26T15:43:20.036Z,23.07
2019-02-26T15:45:51.963Z,23.40
2019-02-26T15:48:20.242Z,22.80
2019-02-26T15:50:49.417Z,20.20
2019-02-26T15:53:18.641Z,21.93
2019-02-26T15:55:47.831Z,21.53
2019-02-26T15:58:17.038Z,20.70
2019-02-26T16:00:46.309Z,20.47
2019-02-26T16:03:15.660Z,20.00
2019-02-26T16:05:44.906Z,20.07
2019-02-26T16:08:14.205Z,23.87
2019-02-26T16:10:43.666Z,21.23
2019-02-26T16:13:12.930Z,23.37
2019-02-26T16:15:42.262Z,20.57
2019-02-26T16:18:11.476Z,23.20
2019-02-26T16:20:40.853Z,24.33
2019-02-26T16:23:10.062Z,21.33
2019-02-26T16:25:39.280Z,21.77
2019-02-26T16:28:08.573Z,23.67
2019-02-26T16:30:38.119Z,24.17
2019-02-26T16:33:07.316Z,24.27
2019-02-26T16:35:36.467Z,25.23
2019-02-26T16:38:05.853Z,24.60
2019-02-26T16:40:35.003Z,25.40
2019-02-26T16:43:04.480Z,25.17
2019-02-26T16:45:35.146Z,24.43
2019-02-26T16:48:04.522Z,21.93
2019-02-26T16:50:33.962Z,23.13
2019-02-26T16:53:03.315Z,24.13
2019-02-26T16:55:32.713Z,25.40
2019-02-26T16:58:03.256Z,27.53
2019-02-26T17:00:32.712Z,27.20
2019-02-26T17:03:02.721Z,24.00
2019-02-26T17:05:32.049Z,25.47
2019-02-26T17:08:01.747Z,25.40
2019-02-26T17:10:31.249Z,25.47
2019-02-26T17:13:02.332Z,25.07
2019-02-26T17:15:31.365Z,28.40
2019-02-26T17:18:00.643Z,32.17
2019-02-26T17:20:29.962Z,31.50
2019-02-26T17:22:59.299Z,28.87
2019-02-26T17:25:29.018Z,29.10
2019-02-26T17:27:58.681Z,30.83
2019-02-26T17:30:27.960Z,34.37
2019-02-26T17:32:57.130Z,35.70
2019-02-26T17:35:28.586Z,36.37
2019-02-26T17:37:57.301Z,39.77
2019-02-26T17:40:26.564Z,40.80
2019-02-26T17:42:55.756Z,45.63
2019-02-26T17:45:25.057Z,40.93
2019-02-26T17:47:56.810Z,37.77
2019-02-26T17:50:28.374Z,36.80
2019-02-26T17:52:57.833Z,39.20
2019-02-26T17:55:27.276Z,37.23
2019-02-26T17:57:56.483Z,34.33
2019-02-26T18:00:26.410Z,32.53
2019-02-26T18:02:55.570Z,36.17
2019-02-26T18:05:24.832Z,35.37
2019-02-26T18:07:53.990Z,38.53
2019-02-26T18:10:23.304Z,36.30
2019-02-26T18:12:53.909Z,35.53
2019-02-26T18:15:23.439Z,35.70
2019-02-26T18:17:52.677Z,34.90
2019-02-26T18:20:21.916Z,42.60
2019-02-26T18:22:51.085Z,38.80
2019-02-26T18:25:20.310Z,49.23
2019-02-26T18:27:49.808Z,50.23
2019-02-26T18:30:20.884Z,73.13
2019-02-26T18:32:50.726Z,142.77
2019-02-26T18:35:21.171Z,109.67
2019-02-26T18:37:50.504Z,111.93
2019-02-26T18:40:20.022Z,90.93
2019-02-26T18:42:49.206Z,85.73
2019-02-26T18:45:20.317Z,84.87
2019-02-26T18:47:49.548Z,82.33
2019-02-26T18:50:19.295Z,72.57
2019-02-26T18:52:48.575Z,65.50
2019-02-26T18:55:18.683Z,47.57
2019-02-26T18:57:48.104Z,47.53
2019-02-26T19:00:19.700Z,42.10
2019-02-26T19:02:49.073Z,44.80
2019-02-26T19:05:20.812Z,40.13
2019-02-26T19:07:49.580Z,43.23
2019-02-26T19:10:20.865Z,47.03
2019-02-26T19:12:50.301Z,40.63
2019-02-26T19:15:19.969Z,40.67
2019-02-26T19:17:50.669Z,40.03
2019-02-26T19:20:22.412Z,40.57
2019-02-26T19:22:52.198Z,35.20
2019-02-26T19:25:21.466Z,43.77
2019-02-26T19:27:53.189Z,42.97
2019-02-26T19:30:23.575Z,38.43
2019-02-26T19:32:52.893Z,36.83
2019-02-26T19:35:22.161Z,36.43
2019-02-26T19:37:55.123Z,38.53
2019-02-26T19:40:26.937Z,40.03
2019-02-26T19:42:56.410Z,41.47
2019-02-26T19:45:25.906Z,39.53
2019-02-26T19:47:56.076Z,38.37
2019-02-26T19:50:26.053Z,36.90
2019-02-26T19:52:57.160Z,37.40
2019-02-26T19:55:28.939Z,32.50
2019-02-26T19:57:58.209Z,36.60
2019-02-26T20:00:27.505Z,38.20
2019-02-26T20:02:56.763Z,34.43
2019-02-26T20:05:26.056Z,34.70
2019-02-26T20:07:56.798Z,36.20
2019-02-26T20:10:26.050Z,31.03
2019-02-26T20:12:55.278Z,33.67
2019-02-26T20:15:24.586Z,32.33
2019-02-26T20:17:55.463Z,35.87
2019-02-26T20:20:24.736Z,37.57
2019-02-26T20:22:54.019Z,36.57
2019-02-26T20:25:23.750Z,35.20
2019-02-26T20:27:54.783Z,37.03
2019-02-26T20:30:24.407Z,35.73
2019-02-26T20:32:55.953Z,38.03
2019-02-26T20:35:25.324Z,41.10
2019-02-26T20:37:58.634Z,38.67
2019-02-26T20:40:28.444Z,44.67
2019-02-26T20:43:01.284Z,46.67
2019-02-26T20:45:28.880Z,43.47
2019-02-26T20:48:03.858Z,42.23
2019-02-26T20:50:31.856Z,39.17
2019-02-26T20:53:05.590Z,40.93
2019-02-26T20:55:35.303Z,36.63
2019-02-26T20:58:05.363Z,42.73
2019-02-26T21:00:34.801Z,40.87
2019-02-26T21:03:04.258Z,39.00
2019-02-26T21:05:34.658Z,33.20
2019-02-26T21:08:05.224Z,36.60
2019-02-26T21:10:34.543Z,35.23
2019-02-26T21:13:04.052Z,43.50
2019-02-26T21:15:33.088Z,37.33
2019-02-26T21:18:02.957Z,39.87
2019-02-26T21:20:32.187Z,42.83
2019-02-26T21:23:02.554Z,43.70
2019-02-26T21:25:31.831Z,46.57
2019-02-26T21:28:05.376Z,52.83
2019-02-26T21:30:34.842Z,53.17
2019-02-26T21:33:04.099Z,46.67
2019-02-26T21:35:33.300Z,53.63
2019-02-26T21:38:05.738Z,47.07
2019-02-26T21:40:37.359Z,40.77
2019-02-26T21:43:07.651Z,42.77
2019-02-26T21:45:37.208Z,44.40
2019-02-26T21:48:06.530Z,39.80
2019-02-26T21:50:35.787Z,40.80
2019-02-26T21:53:04.967Z,33.30
2019-02-26T21:55:43.884Z,32.97
2019-02-26T21:58:05.181Z,32.77
2019-02-26T22:00:36.730Z,32.80
2019-02-26T22:03:07.899Z,32.37
2019-02-26T22:05:37.916Z,29.73
2019-02-26T22:08:07.536Z,30.17
2019-02-26T22:10:36.830Z,33.07
2019-02-26T22:13:06.036Z,32.50
2019-02-26T22:15:36.257Z,32.73
2019-02-26T22:18:06.019Z,34.67
2019-02-26T22:20:36.488Z,42.37
2019-02-26T22:23:07.282Z,32.83
2019-02-26T22:25:37.482Z,41.47
2019-02-26T22:28:08.727Z,41.30
2019-02-26T22:30:37.617Z,37.17
2019-02-26T22:33:07.985Z,35.50
2019-02-26T22:35:37.714Z,39.60
2019-02-26T22:38:06.943Z,34.60
2019-02-26T22:40:36.175Z,31.30
2019-02-26T22:43:05.455Z,29.40
2019-02-26T22:45:34.706Z,31.23
2019-02-26T22:48:05.580Z,30.67
2019-02-26T22:50:34.732Z,32.03
2019-02-26T22:53:04.591Z,31.00
2019-02-26T22:55:33.856Z,39.40
2019-02-26T22:58:03.392Z,32.77
2019-02-26T23:01:02.734Z,33.30
2019-02-26T23:03:32.201Z,39.00
2019-02-26T23:06:01.360Z,35.63
2019-02-26T23:08:30.535Z,33.53
2019-02-26T23:10:59.825Z,34.20
2019-02-26T23:13:31.818Z,33.70
2019-02-26T23:16:00.008Z,36.77
2019-02-26T23:18:30.952Z,39.17
2019-02-26T23:21:00.127Z,36.00
2019-02-26T23:23:29.352Z,37.00
2019-02-26T23:25:58.522Z,38.90
2019-02-26T23:28:27.736Z,33.90
2019-02-26T23:30:59.707Z,34.37
2019-02-26T23:33:28.514Z,31.23
2019-02-26T23:35:57.966Z,31.43
2019-02-26T23:38:27.155Z,35.30
2019-02-26T23:40:58.158Z,28.10
2019-02-26T23:43:27.476Z,36.23
2019-02-26T23:45:57.539Z,35.97
2019-02-26T23:48:26.844Z,32.67
2019-02-26T23:50:56.032Z,35.97
2019-02-26T23:53:25.231Z,36.20
2019-02-26T23:55:54.428Z,33.93
2019-02-26T23:58:23.567Z,28.87
